x

Buoy E01 - Central Maine Shelf (44032) Wave Buoy

8:04pm - Sun 19th Feb 2017 All times are EST. -5 hours from GMT.

  • Sig Wave height 2.6ft
  • Peak Period 5s
  • Wind
    9mph, 13mph gusts
  • Sea Temp 38°f
  • Air Temp 42°f
  • Sea Pressure 1008.8mb
  • Buoy E01 - Central Maine Shelf
  • Buoy E01 - Central Maine Shelf

More Historic Weather Station data

Upgrade to MSW Pro to gain access to the past 30 days of data for over 8000 Wavebouys and Weather Stations around the globe.

Join Pro

Comparision Forecast

View Surf forecast
   
Sun 02/19 8:04pm 2.5ft 5s 9 13 mph 1008.8mb 38f 42f
7:04pm 3ft 6s 13 16 mph 1008.1mb 38f 42f
6:04pm 3.5ft 5s 16 18 mph 1006.8mb 39f 44f
5:04pm 3.5ft 6s 20 25 mph 1005.4mb 39f 46f
4:04pm 3.5ft 5s 11 13 mph 1004.3mb 39f 42f
3:04pm 4ft 6s 16
mph
1003.3mb 39f 43f
2:04pm 3.5ft 5s 11
mph
1002.4mb 39f 42f
1:04pm 3.5ft 6s 9 11 mph 1002.2mb 39f 41f
12:04pm 3.5ft 6s 4 7 mph 1002.5mb 38f 41f
11:04am 3.5ft 6s 13 18 mph 1003.2mb 38f 42f
10:04am 3.5ft 6s 11 13 mph 1003.3mb 38f 40f
9:04am 3.5ft 6s 11 13 mph 1003.2mb 38f 41f
8:04am 4ft 6s 16 18 mph 1002.6mb 38f 41f
7:04am 4.5ft 6s 13 16 mph 1001.9mb 38f 41f
6:04am 4.5ft 6s 16 18 mph 1000.8mb 38f 41f
5:04am 5ft 6s 11 18 mph 999.5mb 38f 41f
4:04am 5ft 8s 16 18 mph 998.8mb 39f 41f
3:04am 5.5ft 6s 11 13 mph 998.6mb 39f 41f
2:04am 6ft 6s 11
mph
998.2mb 40f 41f
1:04am 7ft 6s 11 13 mph 997.9mb 39f 42f
12:04am 6ft 6s 18 20 mph 997.4mb 39f 43f
Sat 02/18 11:04pm 7.5ft 6s 22 29 mph 996.8mb 39f 44f
10:04pm 7ft 6s 25 29 mph 996.8mb 39f 44f
9:04pm 6ft 6s 22 27 mph 996.6mb 39f 44f
8:04pm 5ft 6s 25 29 mph 996.9mb 39f 44f
7:04pm 5ft 6s 22 27 mph 997.3mb 39f 44f
6:04pm 5ft 5s 20 25 mph 998.4mb 39f 43f
5:04pm 5ft 5s 18 22 mph 999mb 40f 42f
4:04pm 5ft 5s 18 22 mph 999.9mb 40f 42f
3:04pm 4.5ft 5s 22 25 mph 1001.1mb 39f 41f
2:04pm 3.5ft 5s 20 27 mph 1002.2mb 39f 40f
1:04pm 2.5ft 5s 13 18 mph 1003.4mb 38f 38f
12:04pm 2.5ft 4s 11 13 mph 1005.2mb 38f 37f
11:04am 2ft 3s 16 20 mph 1005.8mb 38f 37f
10:04am 1.6ft 5s 13 18 mph 1006.9mb 38f 37f
9:04am 2ft 11s 2 4 mph 1007.3mb 38f 35f
8:04am 2ft 11s 4 7 mph 1007.6mb 38f 33f
7:04am 1.3ft 4s 7 9 mph 1008.4mb 38f 33f
6:04am 1.3ft 3s 7 9 mph 1007.9mb 38f 33f
5:04am 2ft 4s 11 13 mph 1007.8mb 39f 32f
4:04am 2.5ft 4s 16 20 mph 1007.9mb 38f 32f
3:04am 2.5ft 3s 16 18 mph 1008mb 38f 32f
2:04am 2.5ft 3s 16 20 mph 1007.7mb 38f 32f
1:04am 2.5ft 4s 13 18 mph 1007.1mb 39f 31f
12:04am 3ft 4s 18 22 mph 1006.8mb 39f 31f
Fri 02/17 11:04pm 3.5ft 4s 22 27 mph 1005.5mb 39f 32f
10:04pm 3.5ft 4s 20 25 mph 1005.5mb 39f 31f
9:04pm 3.5ft 4s 22 27 mph 1005.3mb 40f 32f
8:04pm 3.5ft 3s 22 27 mph 1004.7mb 40f 33f
7:04pm 4ft 4s 25 29 mph 1003.2mb 40f 34f
6:04pm 3.5ft 4s 20 25 mph 1002.6mb 40f 35f
5:04pm 4ft 4s 22 27 mph 1001.6mb 40f 36f
4:04pm 3.5ft 5s 22 27 mph 1000.5mb 40f 37f
3:04pm 3.5ft 5s 20 25 mph 1000.2mb 40f 36f
2:04pm 4.5ft 5s 25 29 mph 1000.1mb 40f 33f
1:04pm 4ft 5s 27 31 mph 1000mb 40f 34f
12:04pm 3.5ft 4s 20 25 mph 1000.4mb 40f 32f
11:04am 4ft 5s 25 29 mph 1000.8mb 40f 31f
10:04am 3.5ft 5s 22 29 mph 1001mb 40f 29f
9:04am 3.5ft 5s 22 25 mph 1000.6mb 40f 28f
8:04am 5.5ft 11s 22 29 mph 1000mb 40f 28f
7:04am 3.5ft 5s 22 29 mph 999.3mb 40f 28f
6:04am 6ft 11s 22 29 mph 998.5mb 40f 28f
5:04am 4.5ft 5s 25 31 mph 998.1mb 40f 28f
4:04am 4ft 5s 25 31 mph 998mb 40f 29f
3:04am 3.5ft 4s 25 29 mph 997.3mb 40f 29f
2:04am 3.5ft 5s 25 31 mph 997.7mb 40f 29f
1:04am 3.5ft 4s 20 25 mph 997.5mb 40f 30f
12:04am 5ft 11s 22 31 mph 997.3mb 40f 30f
Thu 02/16 11:04pm 3.5ft 5s 22 29 mph 997.2mb 40f 30f
10:04pm  -   -  22 29 mph 997.2mb 40f 30f
9:04pm 5.5ft 11s 25 29 mph 997.1mb 41f 31f
8:04pm  -   -  25 29 mph 996.7mb 41f 31f
7:04pm 7ft 11s 27 31 mph 996mb 41f 31f
6:04pm 6.5ft 11s 22 27 mph 995mb 41f 32f
5:04pm 6ft 11s 25 29 mph 993.8mb 41f 32f
4:04pm 6.5ft 11s 22 29 mph 992.6mb 41f 33f
3:04pm 5ft 11s 20 25 mph 992.3mb 41f 32f
2:04pm  -   -  20 25 mph 992.2mb 41f 31f
1:04pm  -   -  20 25 mph 992.3mb 41f 29f
12:04pm 6ft 11s 20 25 mph 992.5mb 41f 28f
11:04am  -   -  20 25 mph 993.1mb 41f 27f
10:04am 6.5ft 11s 20 25 mph 993.1mb 40f 25f
9:04am 7ft 8s 22 27 mph 992.7mb 40f 25f
8:04am 6ft 8s 25 29 mph 992.1mb 40f 25f
7:04am 7.5ft 11s 27 31 mph 991.4mb 40f 24f
6:04am 9ft 8s 27 31 mph 990.8mb 40f 24f
5:04am 7ft 8s 25 31 mph 989.9mb 40f 25f
4:04am 8ft 8s 25 29 mph 989.1mb 40f 25f
3:04am 9ft 8s 25 29 mph 988.1mb 39f 26f